Time;durP1;ratioP1;P1;durP2;ratioP2;P2;SDS_P1;SDS_P2;PMS_P1;PMS_P2;Temp;Humidity;BMP_temperature;BMP_pressure;BME280_temperature;BME280_humidity;BME280_pressure;Samples;Min_cycle;Max_cycle;Signal;HPM_P1;HPM_P2
2021/06/15 00:03:11;;;;;;;18.23;13.32;;;;;;;17.75;73.55;101872.13;10630638;27;20039;-59
2021/06/15 00:08:14;;;;;;;18.67;13.77;;;;;;;17.77;72.17;101870.22;10630449;27;20051;-60
2021/06/15 00:13:16;;;;;;;14.57;12.25;;;;;;;17.61;73.58;101871.31;10630222;27;20043;-60
2021/06/15 00:18:20;;;;;;;16.25;11.85;;;;;;;17.70;72.88;101869.84;10611544;27;20483;-59
2021/06/15 00:23:22;;;;;;;14.82;12.43;;;;;;;17.61;73.02;101875.75;10629796;27;20043;-59
2021/06/15 00:28:24;;;;;;;14.05;12.13;;;;;;;17.49;73.84;101881.94;10629552;27;20043;-60
2021/06/15 00:33:27;;;;;;;19.25;11.80;;;;;;;17.46;71.40;101885.63;10629198;27;20058;-61
2021/06/15 00:38:29;;;;;;;16.65;11.85;;;;;;;17.43;72.78;101877.88;10628912;27;20072;-60
2021/06/15 00:43:31;;;;;;;14.50;10.43;;;;;;;17.49;72.23;101884.56;10628123;27;20039;-59
2021/06/15 00:48:36;;;;;;;15.88;10.75;;;;;;;17.29;73.17;101888.59;10628754;27;20039;-59
2021/06/15 00:53:38;;;;;;;17.90;10.30;;;;;;;17.24;72.68;101873.03;10628993;27;20065;-61
2021/06/15 00:58:41;;;;;;;13.65;10.40;;;;;;;17.36;72.74;101885.41;10628114;27;20414;-59
2021/06/15 01:03:43;;;;;;;14.90;10.50;;;;;;;17.25;72.85;101895.91;10628600;27;20047;-60
2021/06/15 01:08:53;;;;;;;17.65;9.70;;;;;;;17.10;73.50;101892.50;10627840;27;20493;-61
2021/06/15 01:14:06;;;;;;;17.50;11.05;;;;;;;17.04;73.94;101892.91;10610042;27;20048;-59
2021/06/15 01:19:21;;;;;;;12.57;9.63;;;;;;;16.95;74.33;101909.41;10627996;27;20035;-59
2021/06/15 01:24:36;;;;;;;11.88;9.77;;;;;;;16.89;74.03;101915.94;10609055;27;20050;-60
2021/06/15 01:29:39;;;;;;;12.70;8.98;;;;;;;17.03;73.30;101902.66;10627361;27;20213;-60
2021/06/15 01:34:43;;;;;;;12.90;9.57;;;;;;;16.97;72.43;101907.50;10608569;27;20054;-59
2021/06/15 01:40:13;;;;;;;12.52;8.88;;;;;;;16.97;73.42;101904.84;10608658;27;20356;-59
2021/06/15 01:45:22;;;;;;;9.38;8.25;;;;;;;17.06;71.89;101909.50;10626593;27;20058;-60
2021/06/15 01:50:31;;;;;;;10.25;8.27;;;;;;;16.84;73.19;101916.22;10607974;27;20463;-60
2021/06/15 01:55:35;;;;;;;14.43;9.55;;;;;;;16.86;72.63;101919.63;10625575;27;20042;-60
2021/06/15 02:00:37;;;;;;;12.68;8.75;;;;;;;16.69;73.70;101915.44;10608016;27;20035;-59
2021/06/15 02:05:56;;;;;;;13.70;8.35;;;;;;;16.71;73.65;101917.97;10625420;27;20378;-60
2021/06/15 02:10:59;;;;;;;15.77;8.30;;;;;;;16.72;73.11;101920.50;10625411;27;20046;-59
2021/06/15 02:16:02;;;;;;;9.75;7.85;;;;;;;16.72;72.57;101922.31;10625022;27;20046;-59
2021/06/15 02:21:12;;;;;;;9.18;8.18;;;;;;;16.58;73.72;101935.59;10625663;27;20039;-60
2021/06/15 02:26:18;;;;;;;10.27;8.38;;;;;;;16.67;72.76;101933.16;10606763;27;20100;-60
2021/06/15 02:31:28;;;;;;;12.90;8.95;;;;;;;16.59;73.50;101930.19;10606291;27;20479;-60
2021/06/15 02:36:34;;;;;;;13.38;9.43;;;;;;;16.49;73.95;101934.38;10543962;28;20048;-59
2021/06/15 02:41:38;;;;;;;11.43;8.77;;;;;;;16.59;73.05;101932.81;10539873;28;20044;-59
2021/06/15 02:46:43;;;;;;;11.85;8.18;;;;;;;16.42;73.75;101927.78;10538659;28;20047;-59
2021/06/15 02:52:06;;;;;;;11.85;8.90;;;;;;;16.46;74.12;101940.72;10539685;28;20399;-59
2021/06/15 02:57:09;;;;;;;12.77;9.48;;;;;;;16.27;74.61;101933.13;10538720;28;20059;-60
2021/06/15 03:02:11;;;;;;;16.42;9.73;;;;;;;16.41;74.50;101936.66;10539717;28;20044;-59
2021/06/15 03:07:15;;;;;;;11.73;7.80;;;;;;;16.58;73.79;101943.53;10546780;28;20093;-59
2021/06/15 03:12:25;;;;;;;12.35;8.63;;;;;;;16.81;72.47;101939.34;10547965;28;20036;-59
2021/06/15 03:17:27;;;;;;;14.73;9.52;;;;;;;16.47;73.91;101937.09;10546892;28;20079;-59
2021/06/15 03:22:47;;;;;;;12.82;8.60;;;;;;;16.47;73.22;101957.41;10546319;28;20044;-59
2021/06/15 03:27:56;;;;;;;13.23;8.30;;;;;;;16.65;72.53;101955.38;10547367;28;20054;-59
2021/06/15 03:33:07;;;;;;;9.15;7.43;;;;;;;16.78;72.99;101966.88;10560742;27;20066;-60
2021/06/15 03:38:10;;;;;;;14.52;7.95;;;;;;;16.56;72.06;101958.59;10613314;27;20039;-59
2021/06/15 03:43:13;;;;;;;10.85;7.82;;;;;;;16.82;72.81;101957.78;10613454;27;20054;-59
2021/06/15 03:48:16;;;;;;;9.68;7.43;;;;;;;16.82;73.23;101962.22;10612888;27;20047;-59
2021/06/15 03:53:19;;;;;;;8.98;6.43;;;;;;;16.76;72.32;101970.53;10612759;27;20482;-60
2021/06/15 03:58:22;;;;;;;10.05;6.68;;;;;;;16.74;72.03;101983.03;10612549;27;20051;-60
2021/06/15 04:03:26;;;;;;;8.48;6.10;;;;;;;16.51;71.73;101972.97;10630649;27;20050;-60
2021/06/15 04:08:28;;;;;;;8.75;6.65;;;;;;;16.51;72.29;101972.16;10630426;27;20071;-59
2021/06/15 04:13:31;;;;;;;8.40;5.85;;;;;;;16.83;71.30;101987.72;10630168;27;20043;-60
2021/06/15 04:18:36;;;;;;;12.98;6.25;;;;;;;16.84;71.10;102003.50;10610460;27;20036;-59
2021/06/15 04:23:45;;;;;;;11.68;6.60;;;;;;;16.67;71.74;101988.69;10612164;27;20047;-60
2021/06/15 04:28:47;;;;;;;9.25;6.50;;;;;;;16.77;71.34;101996.91;10611305;27;20046;-59
2021/06/15 04:33:51;;;;;;;8.88;4.75;;;;;;;17.01;70.06;101996.28;10610915;27;20054;-59
2021/06/15 04:39:05;;;;;;;9.00;6.00;;;;;;;16.95;71.04;101996.69;10610768;27;20043;-59
2021/06/15 04:44:20;;;;;;;9.98;5.88;;;;;;;17.17;70.01;101994.31;10610704;27;20043;-59
2021/06/15 04:49:32;;;;;;;12.05;6.50;;;;;;;16.85;71.39;101993.78;10610851;27;20039;-59
2021/06/15 04:54:36;;;;;;;9.98;5.80;;;;;;;17.13;70.91;101991.97;10628593;27;20039;-59
2021/06/15 04:59:41;;;;;;;9.43;5.68;;;;;;;17.07;68.93;101995.88;10610446;27;20054;-59
2021/06/15 05:04:43;;;;;;;10.25;5.28;;;;;;;16.98;71.22;102002.63;10628149;27;20047;-60
2021/06/15 05:09:50;;;;;;;11.10;6.43;;;;;;;16.97;70.99;102000.09;10610026;27;20100;-59
2021/06/15 05:14:52;;;;;;;5.00;4.47;;;;;;;17.05;70.96;102008.38;10609622;27;20046;-58
2021/06/15 05:19:55;;;;;;;11.07;5.07;;;;;;;17.24;69.62;102023.88;10609756;27;20043;-59
2021/06/15 05:24:58;;;;;;;7.18;4.78;;;;;;;17.06;70.83;102025.91;10627596;27;20043;-60
2021/06/15 05:30:03;;;;;;;7.20;4.57;;;;;;;17.24;69.13;102023.88;10608840;27;20049;-60
2021/06/15 05:35:06;;;;;;;8.93;4.82;;;;;;;17.24;69.22;102027.34;10626428;27;20475;-59
2021/06/15 05:40:10;;;;;;;5.43;3.30;;;;;;;17.34;67.66;102038.19;10608435;27;20478;-59
2021/06/15 05:45:14;;;;;;;7.00;3.78;;;;;;;16.75;68.78;102041.09;10626418;27;20043;-59
2021/06/15 05:50:17;;;;;;;8.82;3.72;;;;;;;17.08;69.00;102042.56;10608119;27;20043;-59
2021/06/15 05:55:19;;;;;;;6.53;3.00;;;;;;;17.37;66.42;102037.16;10626274;27;20045;-59
2021/06/15 06:00:22;;;;;;;5.55;3.35;;;;;;;16.96;67.32;102032.75;10625991;27;20035;-59
2021/06/15 06:10:46;;;;;;;6.38;2.97;;;;;;;17.63;64.80;102046.84;10625500;27;20382;-60
2021/06/15 06:15:50;;;;;;;7.10;2.88;;;;;;;17.85;64.20;102044.53;10625319;27;20049;-60
2021/06/15 06:20:52;;;;;;;6.32;2.80;;;;;;;17.72;65.02;102049.78;10625121;27;20462;-59
2021/06/15 06:25:54;;;;;;;4.28;2.38;;;;;;;17.49;62.62;102046.91;10624866;27;20498;-59
2021/06/15 06:30:57;;;;;;;9.05;3.05;;;;;;;17.93;61.85;102051.00;10624633;27;20394;-59
2021/06/15 06:36:00;;;;;;;4.13;2.50;;;;;;;17.94;63.11;102052.72;10624621;27;20058;-59
2021/06/15 06:41:02;;;;;;;11.82;4.00;;;;;;;17.73;61.59;102054.16;10623980;27;20039;-60
2021/06/15 06:46:05;;;;;;;6.20;2.70;;;;;;;18.28;60.25;102053.03;10606494;28;20047;-59
2021/06/15 06:51:07;;;;;;;6.13;2.40;;;;;;;18.46;58.23;102056.19;10624639;28;20042;-59
2021/06/15 06:56:10;;;;;;;8.05;2.92;;;;;;;18.09;59.88;102057.91;10624015;28;20501;-59
2021/06/15 07:01:12;;;;;;;5.00;2.40;;;;;;;18.59;59.45;102071.22;10606428;28;20046;-59
2021/06/15 07:06:16;;;;;;;3.95;2.67;;;;;;;18.47;59.00;102081.72;10624673;27;20122;-59
2021/06/15 07:11:18;;;;;;;7.22;3.15;;;;;;;18.49;58.25;102097.53;10624364;28;20062;-59
2021/06/15 07:16:22;;;;;;;6.45;2.47;;;;;;;18.17;60.85;102087.38;10623513;27;20075;-60
2021/06/15 07:21:25;;;;;;;6.85;2.40;;;;;;;18.48;59.63;102085.25;10624021;28;20045;-59
2021/06/15 07:26:27;;;;;;;6.63;2.75;;;;;;;18.77;58.08;102084.97;10623610;28;20051;-59
2021/06/15 07:31:30;;;;;;;5.40;2.53;;;;;;;18.92;54.72;102074.13;10623452;28;20043;-60
2021/06/15 07:36:33;;;;;;;3.88;1.70;;;;;;;18.54;57.14;102087.44;10623440;28;20047;-59
2021/06/15 07:41:37;;;;;;;4.47;1.95;;;;;;;19.55;54.55;102081.06;10623202;28;20043;-59
2021/06/15 07:46:39;;;;;;;5.55;2.13;;;;;;;19.55;54.88;102089.88;10623270;28;20074;-60
2021/06/15 07:51:42;;;;;;;6.63;1.77;;;;;;;20.08;54.84;102096.56;10626977;27;20043;-60
2021/06/15 07:57:08;;;;;;;2.92;1.70;;;;;;;20.26;52.83;102105.78;10631074;27;20039;-60
2021/06/15 08:02:11;;;;;;;5.22;1.70;;;;;;;19.93;53.32;102088.81;10612574;27;20039;-59
2021/06/15 08:07:14;;;;;;;5.82;1.63;;;;;;;19.35;53.82;102087.84;10630322;27;20043;-60
2021/06/15 08:12:17;;;;;;;6.60;1.67;;;;;;;20.74;50.53;102084.25;10630519;27;20039;-59
2021/06/15 08:17:20;;;;;;;5.15;1.52;;;;;;;20.21;46.19;102084.03;10630143;27;20070;-59
2021/06/15 08:22:22;;;;;;;8.43;1.20;;;;;;;19.96;44.60;102085.91;10629877;27;20066;-60
2021/06/15 08:27:25;;;;;;;2.50;0.70;;;;;;;20.59;45.44;102101.41;10628479;27;20047;-60
2021/06/15 08:32:27;;;;;;;3.53;0.98;;;;;;;19.94;44.41;102094.94;10629431;27;20373;-59
2021/06/15 08:37:29;;;;;;;2.75;1.17;;;;;;;19.42;48.88;102092.59;10610953;27;20390;-59
2021/06/15 08:42:33;;;;;;;4.85;1.10;;;;;;;20.18;48.58;102082.44;10629342;27;20039;-60
2021/06/15 08:47:44;;;;;;;5.80;1.45;;;;;;;19.37;48.17;102084.13;10628889;27;20049;-59
2021/06/15 08:52:47;;;;;;;8.05;1.10;;;;;;;20.51;48.65;102088.75;10628825;27;20081;-60
2021/06/15 08:58:16;;;;;;;2.67;1.20;;;;;;;20.57;47.99;102077.59;10627752;27;20072;-60
2021/06/15 09:03:18;;;;;;;2.10;0.98;;;;;;;20.39;46.92;102077.25;10576122;27;20422;-59
2021/06/15 09:08:20;;;;;;;4.90;1.30;;;;;;;21.54;45.45;102076.06;10610061;27;20043;-60
2021/06/15 09:13:35;;;;;;;4.60;1.30;;;;;;;21.02;45.38;102070.53;10627958;27;20050;-60
2021/06/15 09:18:37;;;;;;;3.88;1.08;;;;;;;22.11;45.20;102065.84;10609452;27;20042;-60
2021/06/15 09:23:39;;;;;;;2.13;0.90;;;;;;;22.36;44.22;102064.59;10609015;27;20074;-60
2021/06/15 09:28:50;;;;;;;7.57;1.27;;;;;;;22.78;45.74;102065.31;10627526;27;20039;-60
2021/06/15 09:33:53;;;;;;;4.63;1.02;;;;;;;23.11;42.78;102063.25;10626986;27;20055;-60
2021/06/15 10:10:03;;;;;;;9.63;2.33;;;;;;;24.63;41.39;102066.88;10662781;27;135623;-59
2021/06/15 10:15:06;;;;;;;7.40;1.25;;;;;;;24.00;41.78;102072.88;10618927;28;20048;-59
2021/06/15 10:20:09;;;;;;;1.90;1.00;;;;;;;23.72;44.32;102058.56;10618855;28;20055;-60
2021/06/15 10:25:12;;;;;;;6.93;0.95;;;;;;;24.35;40.04;102057.97;10618233;27;20494;-58
2021/06/15 10:30:16;;;;;;;6.38;1.42;;;;;;;23.16;40.59;102050.31;10618225;28;20475;-60
2021/06/15 10:35:45;;;;;;;5.65;1.20;;;;;;;26.59;38.89;102056.91;10618390;27;20051;-59
2021/06/15 10:40:50;;;;;;;3.25;1.20;;;;;;;25.21;36.45;102057.56;10616911;28;20040;-60
2021/06/15 10:46:15;;;;;;;3.92;1.40;;;;;;;26.50;36.52;102051.53;10617703;27;20047;-60
2021/06/15 10:51:26;;;;;;;4.97;1.63;;;;;;;25.20;38.18;102039.81;10604135;28;20044;-60
2021/06/15 10:56:31;;;;;;;6.97;1.10;;;;;;;25.86;39.67;102042.16;10616088;28;20059;-60
2021/06/15 11:01:41;;;;;;;6.05;1.50;;;;;;;26.69;36.35;102033.47;10617615;27;20051;-61
2021/06/15 11:06:45;;;;;;;4.30;1.60;;;;;;;27.11;39.23;102015.56;10616557;27;20058;-60
2021/06/15 11:11:50;;;;;;;5.30;1.55;;;;;;;26.06;38.29;102026.72;10617225;28;20047;-60
2021/06/15 11:17:00;;;;;;;5.75;1.80;;;;;;;26.22;36.89;102026.75;10613107;27;20043;-60
2021/06/15 11:22:05;;;;;;;;;;;;;;;26.56;37.29;102025.84;10588774;28;20050;-60
2021/06/15 11:27:26;;;;;;;2.92;1.33;;;;;;;26.27;37.15;102021.72;10587677;28;19919;-59
2021/06/15 11:32:33;;;;;;;11.48;2.90;;;;;;;27.82;36.47;102022.03;10587938;28;20050;-60
2021/06/15 11:37:38;;;;;;;4.60;1.50;;;;;;;28.95;35.02;102011.91;10587336;28;20056;-60
2021/06/15 11:42:41;;;;;;;7.03;1.63;;;;;;;27.62;35.88;102016.19;10586949;28;20511;-61
2021/06/15 11:47:51;;;;;;;4.63;1.50;;;;;;;27.66;35.32;102011.34;10586757;28;20069;-60
2021/06/15 11:52:54;;;;;;;;;;;;;;;27.54;37.86;102018.94;10587338;28;20043;-61
2021/06/15 11:57:58;;;;;;;4.88;1.33;;;;;;;28.78;35.43;102014.75;10586693;28;19927;-61
2021/06/15 12:03:02;;;;;;;3.78;1.25;;;;;;;26.96;35.46;102010.84;10586166;28;20054;-60
2021/06/15 12:08:04;;;;;;;5.82;1.67;;;;;;;28.99;34.11;101997.06;10585722;28;20052;-60
2021/06/15 12:13:13;;;;;;;7.13;1.50;;;;;;;28.98;35.40;102003.47;10585978;28;20052;-61
2021/06/15 12:18:38;;;;;;;2.97;1.00;;;;;;;28.24;36.38;102001.22;10585748;27;20074;-60
2021/06/15 12:23:57;;;;;;;4.40;1.23;;;;;;;27.84;31.97;102000.34;10585767;28;20051;-60
2021/06/15 12:29:05;;;;;;;5.00;1.48;;;;;;;28.31;34.02;102002.19;10583522;28;20075;-61
2021/06/15 12:34:11;;;;;;;7.50;1.85;;;;;;;28.41;33.56;102004.66;10585021;28;20052;-60
2021/06/15 12:39:19;;;;;;;3.55;1.20;;;;;;;27.15;34.30;102000.75;10585451;28;20044;-60
2021/06/15 12:44:29;;;;;;;5.30;1.52;;;;;;;27.71;34.32;101990.13;10585003;28;20054;-61
2021/06/15 12:49:32;;;;;;;3.20;1.17;;;;;;;26.85;34.07;101989.69;10584115;28;20394;-60
2021/06/15 12:54:38;;;;;;;4.55;1.65;;;;;;;28.24;33.52;101980.50;10583007;28;20052;-61
2021/06/15 12:59:42;;;;;;;5.70;1.67;;;;;;;27.49;33.49;101975.53;10582867;28;20406;-61
2021/06/15 13:04:46;;;;;;;4.43;1.00;;;;;;;28.11;33.49;101966.78;10583924;28;20048;-61
2021/06/15 13:09:49;;;;;;;3.65;1.60;;;;;;;28.13;30.25;101965.59;10583806;28;20051;-59
2021/06/15 13:14:57;;;;;;;5.90;1.10;;;;;;;27.84;31.06;101960.84;10583563;28;20059;-60
2021/06/15 13:20:09;;;;;;;6.20;1.17;;;;;;;30.14;29.45;101968.88;10583164;28;20131;-62
2021/06/15 13:25:35;;;;;;;7.25;1.20;;;;;;;29.63;31.23;101969.66;10584134;28;20052;-60
2021/06/15 13:30:40;;;;;;;5.45;1.25;;;;;;;29.26;30.94;101971.41;10582905;28;20051;-62
2021/06/15 13:35:44;;;;;;;3.42;0.88;;;;;;;29.01;35.70;101959.97;10582747;28;20051;-61
2021/06/15 13:41:01;;;;;;;6.07;1.42;;;;;;;29.27;30.39;101957.72;10581106;28;20486;-61
2021/06/15 13:46:12;;;;;;;6.70;1.30;;;;;;;30.53;28.88;101951.44;10581936;28;20046;-60
2021/06/15 13:51:33;;;;;;;4.95;1.30;;;;;;;27.48;34.13;101944.28;10582575;28;20126;-61
2021/06/15 13:56:43;;;;;;;5.28;1.45;;;;;;;29.03;29.49;101937.22;10580938;28;20048;-61
2021/06/15 14:01:45;;;;;;;4.43;1.38;;;;;;;29.50;33.61;101937.09;10582180;28;20047;-60
2021/06/15 14:06:48;;;;;;;4.20;1.48;;;;;;;30.13;31.52;101938.34;10581627;28;20048;-60
2021/06/15 14:11:50;;;;;;;3.67;0.80;;;;;;;28.29;31.89;101931.50;10581967;28;20048;-60
2021/06/15 14:16:52;;;;;;;8.38;1.52;;;;;;;29.38;29.88;101928.63;10580351;28;20479;-60
2021/06/15 14:21:56;;;;;;;6.95;1.40;;;;;;;28.47;30.58;101923.16;10581538;28;20044;-60
2021/06/15 14:27:02;;;;;;;4.35;1.25;;;;;;;27.67;31.23;101922.41;10581582;28;20055;-61
2021/06/15 14:32:04;;;;;;;3.97;1.23;;;;;;;29.23;31.87;101915.97;10581341;28;20513;-60
2021/06/15 14:37:08;;;;;;;5.03;1.40;;;;;;;27.80;32.45;101911.06;10580871;28;20086;-61
2021/06/15 14:42:10;;;;;;;7.07;1.30;;;;;;;28.84;30.69;101906.19;10581566;28;20040;-60
2021/06/15 14:47:12;;;;;;;7.18;2.03;;;;;;;28.70;31.69;101896.25;10579887;28;20050;-61
2021/06/15 14:52:15;;;;;;;9.38;1.85;;;;;;;29.13;32.64;101898.34;10581840;28;20502;-61
2021/06/15 14:57:18;;;;;;;4.97;1.60;;;;;;;28.04;35.09;101895.81;10589211;28;20043;-61
2021/06/15 15:02:20;;;;;;;5.10;1.83;;;;;;;27.66;35.04;101895.66;10587652;28;20399;-60
2021/06/15 15:07:23;;;;;;;5.25;1.73;;;;;;;28.29;34.45;101885.75;10588896;28;20055;-59
2021/06/15 15:12:25;;;;;;;4.43;1.23;;;;;;;26.60;34.61;101884.06;10588466;28;20479;-60
2021/06/15 15:17:28;;;;;;;6.45;1.70;;;;;;;27.13;32.68;101885.34;10588054;28;20116;-61
2021/06/15 15:22:31;;;;;;;5.32;1.45;;;;;;;26.69;36.16;101888.44;10587908;28;20406;-60
2021/06/15 15:27:35;;;;;;;5.72;1.42;;;;;;;27.76;34.41;101878.28;10587755;28;20051;-60
2021/06/15 15:32:37;;;;;;;4.95;1.30;;;;;;;28.05;32.82;101871.44;10588097;28;20052;-60
2021/06/15 15:37:40;;;;;;;7.38;1.45;;;;;;;28.65;34.63;101877.91;10587326;28;20405;-60
2021/06/15 15:42:48;;;;;;;4.85;1.38;;;;;;;27.78;34.26;101864.66;10587536;28;20044;-60
2021/06/15 15:47:52;;;;;;;4.80;1.60;;;;;;;28.37;32.73;101866.00;10585666;28;20429;-61
2021/06/15 15:52:55;;;;;;;8.05;1.50;;;;;;;28.26;32.67;101868.09;10587173;28;20040;-60
2021/06/15 15:57:58;;;;;;;2.85;1.10;;;;;;;27.74;33.24;101864.19;10586480;28;20048;-61
2021/06/15 16:03:00;;;;;;;6.45;1.60;;;;;;;26.48;34.94;101860.22;10586320;28;20044;-61
2021/06/15 16:08:03;;;;;;;3.85;1.27;;;;;;;26.38;35.41;101856.00;10586102;28;20058;-60
2021/06/15 16:13:07;;;;;;;5.93;2.13;;;;;;;25.81;34.98;101854.03;10586058;28;20048;-60
2021/06/15 16:18:10;;;;;;;4.70;1.60;;;;;;;26.53;35.40;101854.34;10585691;28;20521;-61
2021/06/15 16:23:13;;;;;;;9.27;1.48;;;;;;;25.72;35.62;101843.28;10585503;28;20386;-60
2021/06/15 16:28:15;;;;;;;7.30;1.80;;;;;;;25.91;33.84;101846.69;10585133;28;20051;-60
2021/06/15 16:33:18;;;;;;;5.80;1.33;;;;;;;26.05;35.17;101838.00;10585132;28;20050;-60
2021/06/15 16:38:20;;;;;;;5.15;1.40;;;;;;;25.29;32.81;101844.28;10584841;28;20058;-61
2021/06/15 16:43:22;;;;;;;6.88;3.10;;;;;;;26.58;34.00;101829.66;10584933;28;20043;-60
2021/06/15 16:48:25;;;;;;;4.22;1.50;;;;;;;25.97;34.10;101829.13;10584393;28;20043;-60
2021/06/15 16:53:45;;;;;;;3.92;1.25;;;;;;;25.31;36.04;101836.91;10584735;28;20047;-61
2021/06/15 16:58:48;;;;;;;7.15;1.85;;;;;;;25.53;36.45;101827.44;10584192;28;20079;-62
2021/06/15 17:03:50;;;;;;;7.65;1.48;;;;;;;25.05;34.92;101832.38;10584092;28;20051;-60
2021/06/15 17:08:52;;;;;;;6.13;1.48;;;;;;;24.83;36.96;101831.91;10582602;28;20066;-60
2021/06/15 17:13:57;;;;;;;6.13;1.42;;;;;;;24.87;34.28;101837.78;10583532;28;20052;-61
2021/06/15 17:19:00;;;;;;;15.38;3.03;;;;;;;25.60;38.83;101833.84;10582660;28;20062;-60
2021/06/15 17:24:03;;;;;;;4.82;1.10;;;;;;;25.24;34.74;101838.53;10581947;28;20478;-60
2021/06/15 17:29:05;;;;;;;3.72;1.08;;;;;;;24.88;36.73;101833.25;10583002;28;20044;-60
2021/06/15 17:34:08;;;;;;;5.60;1.77;;;;;;;24.46;35.64;101834.75;10582839;28;20047;-61
2021/06/15 17:39:10;;;;;;;6.53;1.35;;;;;;;24.18;36.87;101826.81;10583439;28;20055;-61
2021/06/15 17:44:14;;;;;;;7.10;2.72;;;;;;;24.54;36.01;101826.78;10582456;28;20044;-61
2021/06/15 17:49:16;;;;;;;4.03;1.45;;;;;;;24.54;36.67;101821.44;10582219;28;20047;-62
2021/06/15 17:54:19;;;;;;;4.43;1.30;;;;;;;24.30;39.13;101820.25;10582811;28;20055;-60
2021/06/15 17:59:21;;;;;;;6.63;1.63;;;;;;;23.50;39.06;101816.50;10582037;28;20057;-60
2021/06/15 18:04:34;;;;;;;5.70;1.77;;;;;;;23.62;40.58;101811.81;10580879;28;20054;-61
2021/06/15 18:09:37;;;;;;;8.63;1.77;;;;;;;23.37;39.34;101819.53;10581567;28;20060;-60
2021/06/15 18:14:39;;;;;;;6.13;1.50;;;;;;;23.47;40.35;101816.81;10582318;28;20055;-61
2021/06/15 18:19:42;;;;;;;4.05;1.20;;;;;;;23.49;42.09;101809.50;10581664;28;20064;-60
2021/06/15 18:24:44;;;;;;;3.83;1.05;;;;;;;23.19;41.69;101812.28;10581588;28;20056;-61
2021/06/15 18:29:47;;;;;;;5.55;2.05;;;;;;;23.17;39.57;101811.59;10586717;28;20050;-60
2021/06/15 18:34:49;;;;;;;6.22;1.45;;;;;;;23.12;41.17;101813.88;10589890;28;20048;-60
2021/06/15 18:39:52;;;;;;;2.80;1.30;;;;;;;22.85;43.39;101811.09;10589941;28;20055;-61
2021/06/15 18:44:55;;;;;;;2.92;1.45;;;;;;;22.60;41.37;101808.06;10589568;28;20054;-60
2021/06/15 18:49:57;;;;;;;4.85;2.08;;;;;;;22.32;44.03;101804.44;10588411;28;20047;-59
2021/06/15 18:54:59;;;;;;;5.57;1.50;;;;;;;22.17;41.82;101810.13;10589124;28;20055;-59
2021/06/15 19:00:03;;;;;;;6.20;1.10;;;;;;;22.37;42.76;101802.19;10589060;28;20043;-59
2021/06/15 19:05:07;;;;;;;4.28;1.38;;;;;;;22.00;43.87;101795.66;10588656;28;20051;-60
2021/06/15 19:10:11;;;;;;;3.10;1.20;;;;;;;21.77;46.80;101796.88;10589030;28;20124;-60
2021/06/15 19:15:14;;;;;;;5.20;1.60;;;;;;;21.45;48.80;101803.22;10586906;28;20398;-60
2021/06/15 19:20:22;;;;;;;3.10;1.25;;;;;;;20.97;51.60;101802.88;10588123;28;20406;-60
2021/06/15 19:25:25;;;;;;;4.20;1.40;;;;;;;20.65;52.37;101804.78;10588384;28;20085;-61
2021/06/15 19:30:28;;;;;;;4.63;1.23;;;;;;;20.49;50.30;101805.19;10586478;28;20513;-59
2021/06/15 19:35:31;;;;;;;3.17;1.20;;;;;;;20.40;52.12;101809.47;10587651;28;20047;-60
2021/06/15 19:40:33;;;;;;;9.20;1.50;;;;;;;20.02;53.65;101810.78;10586705;28;20062;-60
2021/06/15 19:45:36;;;;;;;4.88;1.48;;;;;;;20.03;52.88;101807.19;10587307;28;20059;-60
2021/06/15 19:50:38;;;;;;;2.60;1.13;;;;;;;19.47;54.44;101803.63;10587176;28;20039;-60
2021/06/15 19:55:49;;;;;;;6.72;1.77;;;;;;;19.56;54.45;101811.81;10586718;28;20474;-60
2021/06/15 20:00:52;;;;;;;3.00;1.38;;;;;;;19.18;55.58;101815.69;10586443;28;20517;-60
2021/06/15 20:05:54;;;;;;;7.78;1.85;;;;;;;18.78;55.45;101816.94;10586563;28;20044;-61
2021/06/15 20:10:56;;;;;;;10.35;1.95;;;;;;;18.74;55.97;101828.72;10586610;28;20074;-58
2021/06/15 20:15:59;;;;;;;1.80;1.27;;;;;;;18.56;56.35;101830.97;10586311;28;20039;-59
2021/06/15 20:21:03;;;;;;;6.28;1.40;;;;;;;18.43;57.15;101831.03;10585928;28;20139;-59
2021/06/15 20:26:06;;;;;;;1.67;1.13;;;;;;;18.23;57.72;101826.34;10585969;28;20040;-60
2021/06/15 20:31:09;;;;;;;6.95;1.73;;;;;;;18.00;57.25;101824.44;10585428;28;20059;-60
2021/06/15 20:36:11;;;;;;;4.70;1.90;;;;;;;18.05;58.02;101831.19;10584698;28;20047;-59
2021/06/15 20:41:14;;;;;;;5.75;1.83;;;;;;;17.74;58.47;101822.78;10583757;28;20415;-59
2021/06/15 20:46:16;;;;;;;4.78;1.60;;;;;;;17.77;59.51;101831.34;10584483;28;20056;-59
2021/06/15 20:51:18;;;;;;;4.68;1.60;;;;;;;17.81;59.10;101827.50;10584232;28;20090;-59
2021/06/15 20:56:21;;;;;;;6.70;2.38;;;;;;;17.54;59.70;101829.50;10583943;28;20039;-60
2021/06/15 21:01:23;;;;;;;3.53;1.98;;;;;;;17.67;59.88;101825.03;10582808;28;20479;-59
2021/06/15 21:06:26;;;;;;;4.22;1.30;;;;;;;17.35;59.28;101827.28;10582666;28;20490;-59
2021/06/15 21:11:29;;;;;;;5.05;1.48;;;;;;;17.27;59.57;101826.00;10584823;28;20051;-60
2021/06/15 21:16:31;;;;;;;3.50;1.38;;;;;;;17.17;60.09;101826.78;10582404;28;20206;-60
2021/06/15 21:21:34;;;;;;;3.58;1.48;;;;;;;16.94;61.03;101820.41;10582020;28;20043;-59
2021/06/15 21:26:36;;;;;;;3.05;1.38;;;;;;;16.88;61.55;101821.69;10582804;28;20044;-59
2021/06/15 21:31:38;;;;;;;2.83;1.70;;;;;;;16.70;61.76;101818.44;10583227;28;20072;-59
2021/06/15 21:36:42;;;;;;;3.45;1.92;;;;;;;16.57;61.75;101813.13;10582904;28;20047;-59
2021/06/15 21:41:45;;;;;;;5.97;1.73;;;;;;;16.58;61.59;101814.81;10582886;28;20044;-59
2021/06/15 21:46:50;;;;;;;4.18;2.00;;;;;;;16.54;62.79;101815.97;10582473;28;20070;-60
2021/06/15 21:51:52;;;;;;;6.90;1.80;;;;;;;16.21;62.08;101811.97;10582931;28;20090;-59
2021/06/15 21:56:54;;;;;;;3.88;1.83;;;;;;;16.32;63.18;101814.75;10582312;28;20047;-60
2021/06/15 22:01:57;;;;;;;1.60;1.40;;;;;;;16.40;61.75;101811.59;10582272;28;20059;-59
2021/06/15 22:06:59;;;;;;;4.43;2.15;;;;;;;16.37;62.23;101809.16;10581558;28;20390;-59
2021/06/15 22:12:02;;;;;;;3.20;1.65;;;;;;;16.24;62.87;101805.59;10581670;28;20047;-60
2021/06/15 22:17:04;;;;;;;5.78;1.80;;;;;;;16.23;62.97;101791.56;10581645;28;20055;-59
2021/06/15 22:22:07;;;;;;;7.05;2.13;;;;;;;16.12;63.82;101797.56;10581842;28;20050;-59
2021/06/15 22:27:09;;;;;;;5.63;2.22;;;;;;;15.97;65.21;101788.00;10581888;28;20059;-60
2021/06/15 22:32:11;;;;;;;8.88;2.00;;;;;;;15.98;63.83;101779.09;10581682;28;20055;-60
2021/06/15 22:37:14;;;;;;;6.43;2.20;;;;;;;15.82;64.32;101779.25;10581297;28;20050;-60
2021/06/15 22:42:16;;;;;;;5.50;2.00;;;;;;;15.65;65.17;101774.16;10581437;28;20047;-59
2021/06/15 22:47:18;;;;;;;4.75;2.20;;;;;;;15.89;64.02;101766.50;10580927;28;20055;-59
2021/06/15 22:52:21;;;;;;;3.95;1.80;;;;;;;15.77;64.60;101765.50;10581012;28;20051;-59
2021/06/15 22:57:23;;;;;;;6.20;1.85;;;;;;;15.58;64.21;101758.72;10581240;28;20047;-58
2021/06/15 23:02:25;;;;;;;6.18;2.25;;;;;;;15.55;67.09;101758.03;10581466;28;20051;-60
2021/06/15 23:07:28;;;;;;;4.38;2.00;;;;;;;15.61;65.10;101741.81;10580745;28;20055;-60
2021/06/15 23:12:30;;;;;;;5.90;2.10;;;;;;;15.43;66.44;101733.28;10581600;28;20059;-59
2021/06/15 23:17:33;;;;;;;5.00;2.03;;;;;;;15.51;66.18;101738.06;10587732;28;20058;-60
2021/06/15 23:22:37;;;;;;;5.28;2.05;;;;;;;15.51;65.97;101738.91;10588244;28;20490;-59
2021/06/15 23:27:39;;;;;;;9.95;2.60;;;;;;;15.48;66.49;101736.47;10586971;28;20048;-59
2021/06/15 23:32:41;;;;;;;6.10;2.22;;;;;;;15.49;67.33;101735.53;10587733;28;20058;-59
2021/06/15 23:37:44;;;;;;;7.03;2.97;;;;;;;15.23;67.73;101719.56;10587139;28;20047;-59
2021/06/15 23:42:47;;;;;;;7.15;2.60;;;;;;;15.34;67.77;101715.41;10587505;28;20044;-60
2021/06/15 23:47:50;;;;;;;6.40;2.17;;;;;;;15.30;67.95;101721.78;10585901;28;20048;-60
2021/06/15 23:52:54;;;;;;;6.88;2.75;;;;;;;15.24;67.85;101717.75;10587192;28;20047;-60
2021/06/15 23:57:56;;;;;;;6.97;2.63;;;;;;;15.19;69.15;101725.13;10586675;28;20126;-59
